Time;durP1;ratioP1;P1;durP2;ratioP2;P2;SDS_P1;SDS_P2;PMS_P1;PMS_P2;Temp;Humidity;BMP_temperature;BMP_pressure;BME280_temperature;BME280_humidity;BME280_pressure;Samples;Min_cycle;Max_cycle;Signal;HPM_P1;HPM_P2
2023/07/03 00:10:10;;;;;;;8.00;5.50;;;;;;;11.85;72.90;98893.79;431106;1273;139778;-63
2023/07/03 00:20:34;;;;;;;7.70;5.70;;;;;;;11.73;73.28;98893.00;431736;1272;139828;-64
2023/07/03 00:30:58;;;;;;;6.00;5.50;;;;;;;11.54;73.91;98895.52;431646;1273;140304;-64
2023/07/03 00:41:22;;;;;;;5.40;4.80;;;;;;;11.37;74.26;98910.21;430961;1272;140688;-64
2023/07/03 00:51:50;;;;;;;7.10;5.70;;;;;;;11.22;74.76;98915.02;430989;1273;140775;-64
2023/07/03 01:02:19;;;;;;;9.50;6.40;;;;;;;11.11;75.62;98922.00;431744;1271;140792;-64
2023/07/03 01:12:46;;;;;;;9.50;6.20;;;;;;;10.99;75.95;98927.14;432773;1267;140859;-63
2023/07/03 01:23:19;;;;;;;8.50;5.20;;;;;;;10.83;76.17;98929.55;431610;1271;139890;-63
2023/07/03 01:33:44;;;;;;;8.90;7.00;;;;;;;10.66;76.33;98929.25;431234;1273;140166;-63
2023/07/03 01:44:08;;;;;;;7.00;6.30;;;;;;;10.48;76.56;98922.19;431161;1272;139716;-64
2023/07/03 01:54:41;;;;;;;7.60;6.50;;;;;;;10.31;77.10;98921.60;430665;1271;140249;-63
2023/07/03 02:05:09;;;;;;;6.90;5.80;;;;;;;10.21;77.72;98924.27;430944;1271;141411;-64
2023/07/03 02:15:33;;;;;;;8.30;5.30;;;;;;;10.08;78.26;98924.15;432174;1270;140201;-64
2023/07/03 02:25:57;;;;;;;9.50;6.80;;;;;;;10.02;78.54;98922.31;431069;1270;140750;-64
2023/07/03 02:36:21;;;;;;;7.20;5.70;;;;;;;10.05;79.12;98914.58;430973;1270;140510;-64
2023/07/03 02:46:47;;;;;;;7.40;6.20;;;;;;;10.11;79.13;98915.89;431247;1272;140525;-64
2023/07/03 02:57:12;;;;;;;6.50;5.90;;;;;;;10.37;79.18;98930.97;431114;1270;139787;-61
2023/07/03 03:07:36;;;;;;;8.40;6.40;;;;;;;10.88;79.49;98929.88;431365;1273;140815;-63
2023/07/03 03:18:00;;;;;;;8.60;7.30;;;;;;;11.48;79.16;98928.30;431651;1270;141749;-64
2023/07/03 03:28:24;;;;;;;9.10;7.40;;;;;;;11.93;78.82;98928.09;431992;1272;140215;-63
2023/07/03 03:38:48;;;;;;;11.50;6.70;;;;;;;12.81;78.52;98925.17;431757;1272;139273;-64
2023/07/03 03:49:12;;;;;;;6.80;5.90;;;;;;;13.46;77.07;98933.59;430771;1268;140541;-63
2023/07/03 03:59:36;;;;;;;8.70;5.70;;;;;;;13.69;75.96;98917.52;431393;1272;139365;-63
2023/07/03 04:10:00;;;;;;;22.20;7.50;;;;;;;15.83;77.06;98929.06;430829;1271;139872;-64
2023/07/03 04:20:25;;;;;;;8.70;5.60;;;;;;;23.14;67.52;98931.36;430623;1272;140228;-64
2023/07/03 04:30:50;;;;;;;7.10;5.50;;;;;;;27.75;56.55;98928.82;430810;1270;139243;-64
2023/07/03 04:41:14;;;;;;;7.90;5.60;;;;;;;30.55;49.17;98925.33;431285;1269;140851;-64
2023/07/03 04:51:39;;;;;;;6.30;5.10;;;;;;;33.50;43.36;98931.47;431230;1272;140242;-64
2023/07/03 05:02:04;;;;;;;6.70;5.30;;;;;;;36.48;38.33;98935.45;430875;1272;139621;-65
2023/07/03 05:12:28;;;;;;;9.50;6.60;;;;;;;38.06;33.67;98937.27;432942;1269;139815;-64
2023/07/03 05:22:52;;;;;;;7.30;5.00;;;;;;;39.99;30.84;98941.83;431073;1267;139839;-65
2023/07/03 05:33:16;;;;;;;5.80;4.60;;;;;;;41.72;27.87;98941.95;430740;1267;138445;-65
2023/07/03 05:43:41;;;;;;;7.30;5.00;;;;;;;43.14;25.33;98953.48;430687;1271;138637;-64
2023/07/03 05:54:05;;;;;;;7.30;4.30;;;;;;;45.20;23.47;98951.10;430133;1267;139286;-65
2023/07/03 06:04:29;;;;;;;12.20;4.70;;;;;;;44.68;21.96;98954.56;430237;1268;139635;-65
2023/07/03 06:14:53;;;;;;;11.80;5.40;;;;;;;41.81;21.76;98956.89;430723;1267;139450;-65
2023/07/03 06:25:17;;;;;;;10.20;4.40;;;;;;;39.97;21.97;98958.14;430853;1267;139310;-71
2023/07/03 06:35:42;;;;;;;4.20;3.80;;;;;;;37.95;22.30;98965.16;431354;1267;139608;-69
2023/07/03 06:46:06;;;;;;;7.10;4.50;;;;;;;37.36;22.81;98965.51;430446;1267;138699;-70
2023/07/03 06:56:30;;;;;;;11.10;4.90;;;;;;;36.77;22.96;98961.90;432543;1272;138522;-72
2023/07/03 07:06:54;;;;;;;4.70;3.90;;;;;;;35.81;23.14;98961.79;432945;1270;138964;-68
2023/07/03 07:17:18;;;;;;;6.10;3.60;;;;;;;37.40;22.40;98962.11;430964;1270;139659;-66
2023/07/03 07:27:42;;;;;;;6.60;3.90;;;;;;;36.30;22.56;98952.27;431144;1271;161231;-70
2023/07/03 07:38:06;;;;;;;8.90;4.10;;;;;;;35.10;23.35;98948.45;434419;1267;139899;-73
2023/07/03 07:48:30;;;;;;;7.70;4.20;;;;;;;34.38;24.07;98949.72;433494;1271;138975;-72
2023/07/03 07:58:57;;;;;;;5.80;4.30;;;;;;;38.44;22.76;98947.30;431843;1267;139205;-71
2023/07/03 08:09:23;;;;;;;4.70;4.20;;;;;;;36.39;22.61;98940.43;433453;1267;139121;-70
2023/07/03 08:19:47;;;;;;;6.40;4.70;;;;;;;34.06;24.15;98941.11;434996;1268;139150;-78
2023/07/03 08:30:13;;;;;;;11.30;5.60;;;;;;;33.16;25.12;98934.96;433344;1267;138731;-74
2023/07/03 08:40:37;;;;;;;38.50;13.10;;;;;;;31.55;26.56;98936.05;431033;1267;138707;-72
2023/07/03 08:51:04;;;;;;;15.70;7.00;;;;;;;31.67;27.36;98927.77;431120;1267;138938;-79
2023/07/03 09:01:35;;;;;;;14.40;5.50;;;;;;;31.41;27.10;98927.80;433295;1268;139200;-76
2023/07/03 09:12:07;;;;;;;8.70;5.20;;;;;;;30.82;27.29;98919.70;431023;1267;139536;-70
2023/07/03 09:22:38;;;;;;;8.00;5.70;;;;;;;30.77;27.17;98906.16;431156;1268;138868;-79
2023/07/03 09:33:01;;;;;;;5.60;5.00;;;;;;;30.13;27.43;98904.41;431486;1267;139150;-66
2023/07/03 09:43:29;;;;;;;8.40;5.60;;;;;;;29.52;28.26;98911.33;430971;1272;139413;-64
2023/07/03 09:53:56;;;;;;;7.60;5.50;;;;;;;29.11;28.64;98907.62;431504;1267;139087;-68
2023/07/03 10:04:20;;;;;;;11.50;5.80;;;;;;;29.17;29.09;98908.12;431587;1267;139828;-69
2023/07/03 10:14:53;;;;;;;6.80;5.50;;;;;;;28.89;28.86;98899.75;431038;1268;139218;-67
2023/07/03 10:25:23;;;;;;;11.50;5.50;;;;;;;29.16;29.09;98896.82;430925;1267;139204;-68
2023/07/03 10:35:49;;;;;;;9.50;6.00;;;;;;;28.85;29.00;98889.64;431183;1267;139208;-67
2023/07/03 10:46:27;;;;;;;7.20;5.40;;;;;;;28.16;29.84;98873.21;431567;1270;138548;-65
2023/07/03 10:56:55;;;;;;;5.80;4.70;;;;;;;28.15;29.78;98871.25;431246;1272;139229;-70
2023/07/03 11:07:28;;;;;;;7.30;6.00;;;;;;;28.19;29.75;98859.91;433796;1270;139578;-69
2023/07/03 11:18:07;;;;;;;12.30;6.70;;;;;;;28.18;29.81;98857.25;432055;1267;139476;-67
2023/07/03 11:28:39;;;;;;;8.10;5.00;;;;;;;27.89;30.28;98863.04;431053;1267;139694;-70
2023/07/03 11:39:19;;;;;;;5.70;5.10;;;;;;;27.69;30.63;98862.83;431526;1267;138748;-66
2023/07/03 11:49:52;;;;;;;7.60;5.40;;;;;;;27.50;30.90;98851.52;431384;1271;138372;-70
2023/07/03 12:00:18;;;;;;;11.70;6.00;;;;;;;26.94;31.51;98842.77;432267;1267;138967;-66
2023/07/03 12:10:46;;;;;;;;;;;;;;;26.89;31.64;98837.40;431196;1267;139668;-68
2023/07/03 12:21:10;;;;;;;7.40;5.60;;;;;;;26.93;31.21;98832.35;431822;1267;125960;-71
2023/07/03 12:31:34;;;;;;;7.00;4.80;;;;;;;27.40;30.88;98829.41;430982;1271;139344;-69
2023/07/03 12:42:07;;;;;;;10.20;6.10;;;;;;;27.90;30.26;98831.44;430950;1267;138778;-69
2023/07/03 12:52:33;;;;;;;11.20;5.80;;;;;;;28.30;29.95;98833.58;432637;1267;139076;-73
2023/07/03 13:02:58;;;;;;;7.90;5.20;;;;;;;28.15;29.84;98831.20;434116;1267;138963;-69
2023/07/03 13:13:22;;;;;;;6.10;5.50;;;;;;;27.97;29.67;98823.58;431336;1267;139240;-69
2023/07/03 13:23:46;;;;;;;7.90;5.70;;;;;;;27.53;30.27;98822.16;432801;1267;140685;-68
2023/07/03 13:34:15;;;;;;;6.90;5.50;;;;;;;27.14;30.22;98826.91;431333;1272;139250;-69
2023/07/03 13:44:39;;;;;;;11.90;6.00;;;;;;;26.74;30.99;98820.75;432900;1267;138983;-71
2023/07/03 13:55:04;;;;;;;12.50;7.00;;;;;;;26.84;31.30;98815.83;433435;1267;138727;-74
2023/07/03 14:05:28;;;;;;;18.30;7.20;;;;;;;26.82;31.66;98806.39;432120;1270;139619;-69
2023/07/03 14:15:52;;;;;;;8.80;6.40;;;;;;;26.67;31.29;98812.58;432297;1270;140994;-68
2023/07/03 14:26:17;;;;;;;10.60;6.10;;;;;;;26.55;31.80;98811.63;432148;1268;140294;-69
2023/07/03 14:36:41;;;;;;;10.80;6.60;;;;;;;26.34;31.87;98812.25;432607;1267;139081;-70
2023/07/03 14:47:06;;;;;;;10.00;6.70;;;;;;;26.28;31.54;98816.60;432171;1271;139004;-70
2023/07/03 14:57:31;;;;;;;11.30;6.40;;;;;;;26.32;31.62;98813.71;431306;1273;138565;-64
2023/07/03 15:07:55;;;;;;;13.70;7.10;;;;;;;26.25;31.63;98816.85;432692;1269;138619;-64
2023/07/03 15:18:19;;;;;;;8.00;6.30;;;;;;;25.91;31.79;98817.10;433377;1266;138692;-62
2023/07/03 15:28:43;;;;;;;11.10;7.70;;;;;;;25.91;32.02;98815.73;431285;1268;138421;-64
2023/07/03 15:39:07;;;;;;;10.40;7.00;;;;;;;25.77;32.43;98827.00;432586;1270;138715;-63
2023/07/03 15:49:31;;;;;;;10.00;6.50;;;;;;;25.31;32.64;98830.46;431985;1270;139884;-65
2023/07/03 15:59:59;;;;;;;9.00;7.40;;;;;;;25.10;33.01;98827.02;431211;1270;139399;-62
2023/07/03 16:10:24;;;;;;;11.70;6.90;;;;;;;25.00;33.14;98833.75;430712;1270;139402;-62
2023/07/03 16:20:55;;;;;;;15.50;7.90;;;;;;;24.72;33.39;98846.84;431065;1267;140133;-68
2023/07/03 16:31:21;;;;;;;10.50;7.40;;;;;;;24.46;33.83;98855.17;431166;1267;139944;-68
2023/07/03 16:41:44;;;;;;;11.30;7.10;;;;;;;24.40;34.10;98868.63;432492;1270;139498;-68
2023/07/03 16:52:08;;;;;;;9.80;6.50;;;;;;;24.31;34.54;98874.61;432734;1267;139595;-68
2023/07/03 17:02:32;;;;;;;7.30;5.10;;;;;;;24.70;34.02;98881.13;431364;1267;138553;-68
2023/07/03 17:12:57;;;;;;;6.30;4.20;;;;;;;24.49;32.89;98884.96;432148;1267;138414;-68
2023/07/03 17:23:21;;;;;;;8.80;4.40;;;;;;;24.10;32.72;98889.35;431621;1267;141224;-68
2023/07/03 17:33:45;;;;;;;7.70;3.50;;;;;;;23.85;32.73;98898.02;431450;1267;140237;-68
2023/07/03 17:44:09;;;;;;;10.30;5.10;;;;;;;23.40;32.93;98901.48;431431;1267;139167;-69
2023/07/03 17:54:33;;;;;;;6.60;3.70;;;;;;;23.00;33.62;98907.46;431626;1270;139689;-69
2023/07/03 18:04:57;;;;;;;6.50;4.30;;;;;;;23.23;33.72;98909.20;431461;1267;139286;-69
2023/07/03 18:15:21;;;;;;;9.50;4.30;;;;;;;22.66;34.38;98912.40;431399;1267;138449;-69
2023/07/03 18:25:51;;;;;;;11.30;5.00;;;;;;;21.99;35.62;98917.02;431460;1270;138982;-67
2023/07/03 18:36:15;;;;;;;14.10;5.00;;;;;;;21.37;37.09;98925.09;431492;1270;139279;-67
2023/07/03 18:46:39;;;;;;;12.40;5.90;;;;;;;20.76;38.68;98931.61;431559;1271;139818;-67
2023/07/03 18:57:04;;;;;;;17.40;5.60;;;;;;;20.23;40.23;98940.84;431624;1267;138555;-68
2023/07/03 19:07:28;;;;;;;16.00;6.30;;;;;;;19.70;41.80;98949.19;431672;1267;138704;-68
2023/07/03 19:17:52;;;;;;;11.80;4.90;;;;;;;19.24;42.96;98961.01;431827;1267;140034;-68
2023/07/03 19:28:17;;;;;;;14.00;6.80;;;;;;;18.90;44.13;98974.27;431505;1267;294113;-67
2023/07/03 19:38:41;;;;;;;8.00;4.40;;;;;;;18.71;44.90;98988.33;432129;1267;138520;-68
2023/07/03 19:49:05;;;;;;;17.40;6.40;;;;;;;18.70;45.82;99000.02;434848;1267;139196;-69
2023/07/03 19:59:29;;;;;;;11.90;5.50;;;;;;;18.50;46.58;98999.59;431247;1268;139946;-69
2023/07/03 20:09:53;;;;;;;9.70;6.20;;;;;;;18.18;47.58;99004.02;431906;1268;139184;-68
2023/07/03 20:20:18;;;;;;;12.50;7.60;;;;;;;17.84;48.80;99015.34;432465;1270;139543;-70
2023/07/03 20:30:47;;;;;;;12.60;6.40;;;;;;;17.50;50.17;99021.80;432365;1268;141082;-69
2023/07/03 20:41:13;;;;;;;8.60;5.60;;;;;;;17.19;51.57;99028.95;432693;1270;138742;-71
2023/07/03 20:51:37;;;;;;;11.80;5.90;;;;;;;16.93;51.89;99042.54;431895;1267;139377;-68
2023/07/03 21:02:03;;;;;;;16.30;6.90;;;;;;;16.74;53.18;99047.34;431376;1267;138979;-67
2023/07/03 21:12:27;;;;;;;12.80;6.70;;;;;;;16.58;54.21;99053.81;431731;1270;138584;-68
2023/07/03 21:22:51;;;;;;;11.40;6.20;;;;;;;16.31;54.13;99050.20;431465;1270;140658;-68
2023/07/03 21:33:15;;;;;;;10.10;7.70;;;;;;;16.07;55.12;99051.84;431671;1270;138713;-68
2023/07/03 21:43:39;;;;;;;10.60;5.90;;;;;;;15.75;56.60;99054.63;431736;1267;138816;-67
2023/07/03 21:54:04;;;;;;;13.20;7.60;;;;;;;15.45;57.68;99061.41;431407;1267;140735;-68
2023/07/03 22:04:28;;;;;;;9.50;6.70;;;;;;;15.17;58.37;99065.36;431316;1267;140341;-68
2023/07/03 22:14:52;;;;;;;10.60;6.90;;;;;;;15.06;59.33;99071.87;431500;1270;139618;-69
2023/07/03 22:25:17;;;;;;;15.50;7.90;;;;;;;15.03;60.16;99078.71;431279;1270;139369;-68
2023/07/03 22:35:40;;;;;;;17.60;7.30;;;;;;;14.97;60.52;99084.34;432538;1270;139510;-68
2023/07/03 22:46:06;;;;;;;19.70;8.60;;;;;;;15.01;61.38;99089.02;432340;1270;139551;-68
2023/07/03 22:56:30;;;;;;;13.50;7.30;;;;;;;15.18;61.75;99088.41;432012;1270;139756;-67
2023/07/03 23:06:54;;;;;;;12.20;7.30;;;;;;;15.33;62.10;99092.69;431288;1270;140175;-69
2023/07/03 23:17:25;;;;;;;11.10;7.20;;;;;;;15.26;62.45;99099.02;431190;1270;139778;-71
2023/07/03 23:27:48;;;;;;;15.90;8.90;;;;;;;14.90;63.21;99112.41;431633;1268;139792;-68
2023/07/03 23:38:13;;;;;;;16.90;10.30;;;;;;;14.81;63.79;99116.39;431375;1270;139360;-68
2023/07/03 23:48:38;;;;;;;15.30;8.60;;;;;;;14.82;64.25;99115.63;431174;1270;140466;-67
2023/07/03 23:59:03;;;;;;;11.80;7.90;;;;;;;14.85;64.18;99117.80;431315;1267;140628;-67
